Hayase Maru — JD2583 — position and weather

sailwx.info

Track history (hours):
 
Tides and Currents Weather Stations Pressure Air Temp Water Temp Dewpoint Dewpoint Depression Visibility Wind Speed Wind Dir Waves Ship Positions

Hayase Maru

Last reported at 2015-Feb-12 10:31 UTC. Time now 2015-Mar-01 06:55 UTC.
Position N 34°58' E 139°43'.
Warning: this ship's position is 16 days out of date.

Length 73 m; draft 4.1 m.

Type: Ship. MMSI: 431000395.

Date/timePositionNaut miles runAvg speedWind from/ knotsBaromVisibWave heightAir tempDewpointWater temp
2015-Feb-12 10:31N 34°58' E 139°43'9 9.8
2015-Feb-12 09:33N 35°07' E 139°45'1010.3
2015-Feb-12 08:33N 35°18' E 139°44'9 9.1
2015-Feb-12 07:32N 35°27' E 139°42'4 4.1
2015-Feb-12 06:33N 35°25' E 139°47'7 2.1
2015-Feb-12 03:23N 35°21' E 139°54'0 0.0
2015-Feb-11 18:20N 35°21' E 139°54'0 0.0
2015-Feb-11 17:08N 35°21' E 139°54'0 0.0
2015-Feb-11 14:29N 35°21' E 139°54'0 0.0
2015-Feb-11 13:11N 35°21' E 139°54'0 0.0
2015-Feb-11 10:11N 35°21' E 139°54'0 0.0
2015-Feb-10 22:11N 35°21' E 139°54'0 0.0
2015-Feb-10 21:29N 35°21' E 139°54'0 0.0
2015-Feb-10 20:29N 35°21' E 139°54'0 0.0
2015-Feb-10 19:23N 35°21' E 139°54'0 0.0
2015-Feb-10 18:29N 35°21' E 139°54'0 0.0
2015-Feb-10 17:17N 35°21' E 139°54'0 0.0
2015-Feb-10 16:05N 35°21' E 139°54'0 0.0
2015-Feb-10 15:05N 35°21' E 139°54'0 0.0
2015-Feb-10 14:29N 35°21' E 139°54'0 0.0
2015-Feb-10 13:26N 35°21' E 139°54'0 0.0
2015-Feb-10 12:23N 35°21' E 139°54'0 0.0
2015-Feb-10 11:23N 35°21' E 139°54'0 0.0
2015-Feb-10 10:17N 35°21' E 139°54'0 0.0
2015-Feb-10 09:23N 35°21' E 139°54'0 0.2
2015-Feb-10 08:32N 35°22' E 139°54'10 9.8
2015-Feb-10 07:33N 35°31' E 139°53'7 2.9
2015-Feb-10 05:06N 35°37' E 139°48'0 0.1
2015-Feb-10 00:31N 35°37' E 139°48'4 1.2
2015-Feb-09 21:32N 35°35' E 139°52'0 0.0
2015-Feb-09 20:14N 35°35' E 139°52'0 0.0
2015-Feb-09 18:23N 35°35' E 139°52'0 0.0
2015-Feb-09 15:29N 35°35' E 139°52'0 0.0
2015-Feb-09 14:05N 35°35' E 139°52'0 0.0
2015-Feb-09 10:29N 35°35' E 139°52'6 2.8
2015-Feb-09 08:17N 35°29' E 139°52'911.7
2015-Feb-09 07:33N 35°22' E 139°45'1111.2
2015-Feb-09 06:33N 35°11' E 139°47'1212.0
2015-Feb-09 05:33N 34°59' E 139°44'  
2015-Feb-02 16:33N 34°51' E 139°43'  
Track history (hours):
 
Tides and Currents Weather Stations Pressure Air Temp Water Temp Dewpoint Dewpoint Depression Visibility Wind Speed Wind Dir Waves Ship Positions

Hayase Maru

Last reported at 2015-Feb-12 10:31 UTC. Time now 2015-Mar-01 06:55 UTC.
Position N 34°58' E 139°43'.
Warning: this ship's position is 16 days out of date.

Length 73 m; draft 4.1 m.

Type: Ship. MMSI: 431000395.

Date/timePositionNaut miles runAvg speedWind from/ knotsBaromVisibWave heightAir tempDewpointWater temp
2015-Feb-12 10:31N 34°58' E 139°43'9 9.8
2015-Feb-12 09:33N 35°07' E 139°45'1010.3
2015-Feb-12 08:33N 35°18' E 139°44'9 9.1
2015-Feb-12 07:32N 35°27' E 139°42'4 4.1
2015-Feb-12 06:33N 35°25' E 139°47'7 2.1
2015-Feb-12 03:23N 35°21' E 139°54'0 0.0
2015-Feb-11 18:20N 35°21' E 139°54'0 0.0
2015-Feb-11 17:08N 35°21' E 139°54'0 0.0
2015-Feb-11 14:29N 35°21' E 139°54'0 0.0
2015-Feb-11 13:11N 35°21' E 139°54'0 0.0
2015-Feb-11 10:11N 35°21' E 139°54'0 0.0
2015-Feb-10 22:11N 35°21' E 139°54'0 0.0
2015-Feb-10 21:29N 35°21' E 139°54'0 0.0
2015-Feb-10 20:29N 35°21' E 139°54'0 0.0
2015-Feb-10 19:23N 35°21' E 139°54'0 0.0
2015-Feb-10 18:29N 35°21' E 139°54'0 0.0
2015-Feb-10 17:17N 35°21' E 139°54'0 0.0
2015-Feb-10 16:05N 35°21' E 139°54'0 0.0
2015-Feb-10 15:05N 35°21' E 139°54'0 0.0
2015-Feb-10 14:29N 35°21' E 139°54'0 0.0
2015-Feb-10 13:26N 35°21' E 139°54'0 0.0
2015-Feb-10 12:23N 35°21' E 139°54'0 0.0
2015-Feb-10 11:23N 35°21' E 139°54'0 0.0
2015-Feb-10 10:17N 35°21' E 139°54'0 0.0
2015-Feb-10 09:23N 35°21' E 139°54'0 0.2
2015-Feb-10 08:32N 35°22' E 139°54'10 9.8
2015-Feb-10 07:33N 35°31' E 139°53'7 2.9
2015-Feb-10 05:06N 35°37' E 139°48'0 0.1
2015-Feb-10 00:31N 35°37' E 139°48'4 1.2
2015-Feb-09 21:32N 35°35' E 139°52'0 0.0
2015-Feb-09 20:14N 35°35' E 139°52'0 0.0
2015-Feb-09 18:23N 35°35' E 139°52'0 0.0
2015-Feb-09 15:29N 35°35' E 139°52'0 0.0
2015-Feb-09 14:05N 35°35' E 139°52'0 0.0
2015-Feb-09 10:29N 35°35' E 139°52'6 2.8
2015-Feb-09 08:17N 35°29' E 139°52'911.7
2015-Feb-09 07:33N 35°22' E 139°45'1111.2
2015-Feb-09 06:33N 35°11' E 139°47'1212.0
2015-Feb-09 05:33N 34°59' E 139°44'  
2015-Feb-02 16:33N 34°51' E 139°43'  

Dump ship's entire track history